Time;durP1;ratioP1;P1;durP2;ratioP2;P2;SDS_P1;SDS_P2;PMS_P1;PMS_P2;Temp;Humidity;BMP_temperature;BMP_pressure;BME280_temperature;BME280_humidity;BME280_pressure;Samples;Min_cycle;Max_cycle;Signal;HPM_P1;HPM_P2
2022/09/04 00:00:34;;;;;;;;;;;24.20;64.00;;;;;;5036874;28;19933;-61
2022/09/04 00:03:00;;;;;;;;;;;24.30;65.30;;;;;;5041242;28;20041;-61
2022/09/04 00:05:26;;;;;;;;;;;24.30;65.30;;;;;;5048774;28;19925;-61
2022/09/04 00:07:55;;;;;;;;;;;24.30;65.10;;;;;;5037141;28;19921;-61
2022/09/04 00:10:28;;;;;;;;;;;24.10;63.90;;;;;;5040189;28;20279;-60
2022/09/04 00:13:12;;;;;;;;;;;24.00;63.80;;;;;;5047241;28;19929;-61
2022/09/04 00:15:39;;;;;;;;;;;25.40;64.60;;;;;;5040446;28;19926;-61
2022/09/04 00:18:19;;;;;;;;;;;24.20;65.40;;;;;;5034125;28;19925;-61
2022/09/04 00:20:44;;;;;;;;;;;24.00;63.80;;;;;;5041845;28;19956;-61
2022/09/04 00:23:10;;;;;;;;;;;24.30;65.10;;;;;;5046110;28;19947;-61
2022/09/04 00:25:35;;;;;;;;;;;24.20;65.10;;;;;;5035339;28;19925;-61
2022/09/04 00:28:08;;;;;;;;;;;24.10;64.90;;;;;;5037161;28;19925;-65
2022/09/04 00:30:34;;;;;;;;;;;24.20;65.30;;;;;;5042573;28;19929;-60
2022/09/04 00:33:02;;;;;;;;;;;24.00;65.00;;;;;;5051527;28;20294;-62
2022/09/04 00:35:36;;;;;;;;;;;24.00;63.80;;;;;;5046017;28;19979;-60
2022/09/04 00:38:03;;;;;;;;;;;24.10;63.80;;;;;;5051443;28;19925;-61
2022/09/04 00:40:35;;;;;;;;;;;24.00;65.30;;;;;;5048605;28;20058;-60
2022/09/04 00:43:19;;;;;;;;;;;24.20;63.90;;;;;;5055114;28;19929;-60
2022/09/04 00:46:01;;;;;;;;;;;24.00;63.80;;;;;;5046311;28;19932;-60
2022/09/04 00:48:36;;;;;;;;;;;24.00;63.90;;;;;;5038561;28;19924;-60
2022/09/04 00:51:04;;;;;;;;;;;24.00;63.90;;;;;;5044728;28;19925;-60
2022/09/04 00:53:36;;;;;;;;;;;24.00;63.90;;;;;;5035789;28;19921;-60
2022/09/04 00:56:14;;;;;;;;;;;24.00;63.90;;;;;;5038202;28;20351;-61
2022/09/04 00:58:59;;;;;;;;;;;24.00;65.50;;;;;;5029851;28;19925;-60
2022/09/04 01:01:25;;;;;;;;;;;24.10;64.10;;;;;;5035197;28;19928;-60
2022/09/04 01:04:09;;;;;;;;;;;23.70;65.40;;;;;;5053493;28;20301;-61
2022/09/04 01:06:40;;;;;;;;;;;24.00;64.10;;;;;;5045224;28;20382;-60
2022/09/04 01:09:12;;;;;;;;;;;24.00;64.10;;;;;;5038448;28;19925;-61
2022/09/04 01:11:53;;;;;;;;;;;23.90;64.10;;;;;;5051177;28;19947;-60
2022/09/04 01:14:28;;;;;;;;;;;24.20;64.30;;;;;;5018430;28;20387;-60
2022/09/04 01:16:54;;;;;;;;;;;23.80;64.10;;;;;;5040529;28;20398;-60
2022/09/04 01:19:43;;;;;;;;;;;23.70;65.20;;;;;;5028045;28;19924;-61
2022/09/04 01:22:17;;;;;;;;;;;24.00;64.10;;;;;;4976537;28;19980;-60
2022/09/04 01:24:51;;;;;;;;;;;23.80;64.10;;;;;;4991532;28;19932;-62
2022/09/04 01:27:22;;;;;;;;;;;24.00;64.20;;;;;;4988088;28;19925;-61
2022/09/04 01:30:04;;;;;;;;;;;23.90;64.10;;;;;;4982392;28;19925;-60
2022/09/04 01:32:48;;;;;;;;;;;24.00;64.20;;;;;;4974840;28;19932;-61
2022/09/04 01:35:20;;;;;;;;;;;23.70;64.10;;;;;;4992511;28;19980;-61
2022/09/04 01:37:51;;;;;;;;;;;23.80;64.20;;;;;;4991845;28;19926;-60
2022/09/04 01:40:23;;;;;;;;;;;24.10;64.30;;;;;;4975691;28;19981;-61
2022/09/04 01:43:12;;;;;;;;;;;24.00;64.30;;;;;;4992071;28;19925;-60
2022/09/04 01:45:45;;;;;;;;;;;24.20;64.30;;;;;;4986586;28;20450;-61
2022/09/04 01:48:12;;;;;;;;;;;23.90;64.20;;;;;;4976498;28;19926;-61
2022/09/04 01:50:38;;;;;;;;;;;23.90;65.70;;;;;;4990719;28;19926;-60
2022/09/04 01:53:11;;;;;;;;;;;23.90;65.50;;;;;;4992364;28;19941;-60
2022/09/04 01:55:49;;;;;;;;;;;23.90;64.30;;;;;;4989969;28;19988;-61
2022/09/04 01:58:34;;;;;;;;;;;23.90;65.80;;;;;;4981590;28;19936;-60
2022/09/04 02:01:18;;;;;;;;;;;23.80;64.30;;;;;;5043727;28;19929;-60
2022/09/04 02:03:51;;;;;;;;;;;23.90;64.30;;;;;;5016036;28;19978;-61
2022/09/04 02:06:34;;;;;;;;;;;23.80;64.30;;;;;;5034085;28;19952;-60
2022/09/04 02:09:18;;;;;;;;;;;23.90;64.40;;;;;;5046046;28;20055;-60
2022/09/04 02:11:47;;;;;;;;;;;23.80;64.40;;;;;;5051522;28;19972;-60
2022/09/04 02:14:33;;;;;;;;;;;23.80;65.90;;;;;;5026786;28;19990;-60
2022/09/04 02:17:07;;;;;;;;;;;23.90;64.50;;;;;;5034030;28;19932;-61
2022/09/04 02:19:42;;;;;;;;;;;24.30;64.60;;;;;;5033400;28;20144;-64
2022/09/04 02:22:13;;;;;;;;;;;23.70;64.30;;;;;;5045644;28;19933;-60
2022/09/04 02:24:43;;;;;;;;;;;23.70;65.70;;;;;;5043682;28;19925;-61
2022/09/04 02:27:10;;;;;;;;;;;23.90;65.90;;;;;;5024194;28;19932;-60
2022/09/04 02:29:36;;;;;;;;;;;24.00;66.00;;;;;;5048241;28;19925;-65
2022/09/04 02:32:10;;;;;;;;;;;23.90;65.60;;;;;;5024590;28;19925;-60
2022/09/04 02:34:39;;;;;;;;;;;23.80;64.40;;;;;;5042878;28;19925;-63
2022/09/04 02:37:11;;;;;;;;;;;23.90;65.90;;;;;;5039764;28;19926;-60
2022/09/04 02:39:44;;;;;;;;;;;23.60;64.40;;;;;;5049201;28;19932;-60
2022/09/04 02:42:18;;;;;;;;;;;24.10;64.70;;;;;;5047956;28;19986;-60
2022/09/04 02:45:02;;;;;;;;;;;23.80;64.50;;;;;;5045669;28;20328;-61
2022/09/04 02:47:46;;;;;;;;;;;24.00;64.60;;;;;;5039638;28;19925;-60
2022/09/04 02:50:31;;;;;;;;;;;23.90;64.60;;;;;;5035071;28;19947;-61
2022/09/04 02:53:06;;;;;;;;;;;23.80;65.20;;;;;;5037204;28;19924;-61
2022/09/04 02:55:32;;;;;;;;;;;23.60;64.50;;;;;;5046536;28;19929;-62
2022/09/04 02:58:00;;;;;;;;;;;23.80;65.80;;;;;;5043155;28;19929;-60
2022/09/04 03:00:38;;;;;;;;;;;23.70;66.00;;;;;;5045823;28;20390;-61
2022/09/04 03:03:15;;;;;;;;;;;23.80;64.70;;;;;;5034057;28;20032;-61
2022/09/04 03:05:41;;;;;;;;;;;23.90;64.80;;;;;;5044938;28;19932;-63
2022/09/04 03:08:36;;;;;;;;;;;24.00;66.00;;;;;;5046990;28;20463;-60
2022/09/04 03:11:28;;;;;;;;;;;24.00;64.80;;;;;;4990980;28;19926;-60
2022/09/04 03:13:56;;;;;;;;;;;23.80;64.70;;;;;;4932022;29;19931;-61
2022/09/04 03:16:31;;;;;;;;;;;23.80;64.70;;;;;;4932410;29;19927;-60
2022/09/04 03:19:04;;;;;;;;;;;24.00;64.80;;;;;;4901443;29;19927;-61
2022/09/04 03:21:48;;;;;;;;;;;23.80;64.70;;;;;;4917347;29;20083;-61
2022/09/04 03:24:34;;;;;;;;;;;23.80;64.70;;;;;;4932887;29;19969;-60
2022/09/04 03:27:00;;;;;;;;;;;23.90;66.20;;;;;;4931671;29;19927;-61
2022/09/04 03:29:29;;;;;;;;;;;23.70;66.00;;;;;;4917417;29;20413;-61
2022/09/04 03:31:54;;;;;;;;;;;23.80;64.70;;;;;;4933268;29;19927;-62
2022/09/04 03:34:40;;;;;;;;;;;23.80;66.00;;;;;;4916091;29;19946;-60
2022/09/04 03:37:09;;;;;;;;;;;23.90;64.80;;;;;;4931734;29;19981;-61
2022/09/04 03:39:55;;;;;;;;;;;23.90;64.80;;;;;;4927386;29;19926;-60
2022/09/04 03:42:23;;;;;;;;;;;23.70;66.10;;;;;;4931912;29;19927;-60
2022/09/04 03:45:04;;;;;;;;;;;23.60;64.60;;;;;;4932376;29;19927;-60
2022/09/04 03:47:42;;;;;;;;;;;23.80;64.80;;;;;;4949294;28;20395;-61
2022/09/04 03:50:24;;;;;;;;;;;23.40;64.50;;;;;;4968801;28;19925;-61
2022/09/04 03:53:04;;;;;;;;;;;23.80;64.80;;;;;;5020505;28;19975;-60
2022/09/04 03:55:36;;;;;;;;;;;23.80;64.80;;;;;;5032731;28;19925;-60
2022/09/04 03:58:08;;;;;;;;;;;23.30;64.60;;;;;;5026499;28;19929;-63
2022/09/04 04:00:44;;;;;;;;;;;23.50;64.80;;;;;;5030690;28;19925;-60
2022/09/04 04:03:30;;;;;;;;;;;23.80;64.80;;;;;;5014749;28;19932;-61
2022/09/04 04:06:01;;;;;;;;;;;23.70;64.80;;;;;;5005748;28;19960;-60
2022/09/04 04:08:39;;;;;;;;;;;23.70;64.90;;;;;;5042024;28;19924;-60
2022/09/04 04:11:11;;;;;;;;;;;23.70;64.80;;;;;;5044688;28;19979;-60
2022/09/04 04:13:50;;;;;;;;;;;23.70;64.80;;;;;;5043356;28;20469;-60
2022/09/04 04:16:39;;;;;;;;;;;23.50;64.70;;;;;;5039387;28;19933;-60
2022/09/04 04:19:09;;;;;;;;;;;23.80;64.90;;;;;;5044480;28;19925;-60
2022/09/04 04:21:38;;;;;;;;;;;23.70;64.90;;;;;;5045150;28;19924;-61
2022/09/04 04:24:04;;;;;;;;;;;23.50;64.80;;;;;;5044747;28;19936;-60
2022/09/04 04:26:48;;;;;;;;;;;23.70;66.10;;;;;;5044174;28;19933;-61
2022/09/04 04:29:17;;;;;;;;;;;23.60;65.00;;;;;;5051745;28;20413;-63
2022/09/04 04:35:09;;;;;;;;;;;23.50;65.00;;;;;;5006758;28;19968;-60
2022/09/04 04:37:50;;;;;;;;;;;23.50;64.90;;;;;;5012938;28;20331;-60
2022/09/04 04:40:34;;;;;;;;;;;23.40;64.90;;;;;;5011845;28;19926;-61
2022/09/04 04:43:20;;;;;;;;;;;23.90;65.20;;;;;;5012379;28;20324;-60
2022/09/04 04:45:52;;;;;;;;;;;23.70;66.60;;;;;;5012749;28;19932;-60
2022/09/04 04:48:35;;;;;;;;;;;23.60;65.10;;;;;;5011715;28;20019;-63
2022/09/04 04:51:19;;;;;;;;;;;23.70;65.20;;;;;;5012998;28;20019;-60
2022/09/04 04:53:45;;;;;;;;;;;23.70;65.80;;;;;;5012074;28;19925;-60
2022/09/04 04:56:13;;;;;;;;;;;23.30;66.00;;;;;;5012957;28;19953;-60
2022/09/04 04:58:42;;;;;;;;;;;23.70;66.60;;;;;;4995191;28;19948;-60
2022/09/04 05:01:16;;;;;;;;;;;23.60;66.40;;;;;;4995406;28;19926;-60
2022/09/04 05:04:21;;;;;;;;;;;23.70;65.20;;;;;;5011409;28;19926;-60
2022/09/04 05:06:49;;;;;;;;;;;23.70;65.20;;;;;;4978701;28;20319;-66
2022/09/04 05:09:24;;;;;;;;;;;23.80;66.70;;;;;;4955959;28;19926;-65
2022/09/04 05:12:09;;;;;;;;;;;23.50;65.10;;;;;;4969177;28;20041;-60
2022/09/04 05:14:43;;;;;;;;;;;23.80;65.20;;;;;;4994120;28;19926;-60
2022/09/04 05:17:24;;;;;;;;;;;23.70;65.20;;;;;;4992895;28;19925;-60
2022/09/04 05:19:57;;;;;;;;;;;23.80;65.20;;;;;;4975218;28;19934;-60
2022/09/04 05:22:37;;;;;;;;;;;23.60;65.10;;;;;;4976403;28;20368;-60
2022/09/04 05:25:05;;;;;;;;;;;23.80;65.10;;;;;;4977202;28;19926;-60
2022/09/04 05:27:31;;;;;;;;;;;23.70;65.00;;;;;;4990151;28;19929;-60
2022/09/04 05:30:02;;;;;;;;;;;23.90;66.30;;;;;;4991849;28;20030;-60
2022/09/04 05:32:30;;;;;;;;;;;22.10;64.10;;;;;;4992085;28;19926;-62
2022/09/04 05:35:14;;;;;;;;;;;23.50;66.30;;;;;;4993575;28;20383;-60
2022/09/04 05:37:49;;;;;;;;;;;23.80;65.00;;;;;;5019832;28;19925;-61
2022/09/04 05:40:41;;;;;;;;;;;23.80;65.00;;;;;;5039668;28;20341;-60
2022/09/04 05:43:10;;;;;;;;;;;23.70;65.00;;;;;;5011091;28;19925;-60
2022/09/04 05:45:54;;;;;;;;;;;23.80;65.10;;;;;;5010859;28;19926;-63
2022/09/04 05:48:21;;;;;;;;;;;23.60;65.10;;;;;;5013071;28;20379;-60
2022/09/04 05:51:05;;;;;;;;;;;23.60;66.40;;;;;;5010628;28;19925;-60
2022/09/04 05:53:37;;;;;;;;;;;23.60;65.10;;;;;;5012062;28;19925;-61
2022/09/04 05:56:10;;;;;;;;;;;23.90;65.20;;;;;;5010172;28;19929;-60
2022/09/04 05:58:44;;;;;;;;;;;23.80;65.10;;;;;;4995241;28;20294;-61
2022/09/04 06:01:12;;;;;;;;;;;23.90;65.20;;;;;;5011823;28;19926;-61
2022/09/04 06:03:43;;;;;;;;;;;23.70;66.30;;;;;;5011513;28;20303;-61
2022/09/04 06:06:28;;;;;;;;;;;23.80;65.10;;;;;;5010692;28;19934;-60
2022/09/04 06:09:15;;;;;;;;;;;23.70;65.00;;;;;;4994662;28;20012;-60
2022/09/04 06:11:50;;;;;;;;;;;24.20;65.20;;;;;;4995087;28;19933;-64
2022/09/04 06:14:16;;;;;;;;;;;24.30;65.10;;;;;;5010620;28;20055;-60
2022/09/04 06:17:08;;;;;;;;;;;24.00;65.80;;;;;;5010535;28;20326;-63
2022/09/04 06:19:33;;;;;;;;;;;24.20;64.60;;;;;;4972253;28;20447;-61
2022/09/04 06:22:08;;;;;;;;;;;24.30;65.30;;;;;;4988809;28;20037;-60
2022/09/04 06:24:34;;;;;;;;;;;24.60;64.30;;;;;;4992107;28;20028;-60
2022/09/04 06:27:12;;;;;;;;;;;24.60;65.30;;;;;;4981112;28;19932;-61
2022/09/04 06:29:53;;;;;;;;;;;24.90;64.00;;;;;;4991111;28;19926;-60
2022/09/04 06:32:37;;;;;;;;;;;25.00;63.80;;;;;;4991672;28;19957;-60
2022/09/04 06:35:02;;;;;;;;;;;24.90;63.60;;;;;;4975929;28;20360;-60
2022/09/04 06:37:45;;;;;;;;;;;25.30;64.70;;;;;;4986113;28;19926;-61
2022/09/04 06:40:30;;;;;;;;;;;24.90;63.30;;;;;;4986840;28;20431;-60
2022/09/04 06:43:16;;;;;;;;;;;25.00;63.20;;;;;;4988047;28;20050;-61
2022/09/04 06:46:01;;;;;;;;;;;25.40;64.80;;;;;;4948670;28;19934;-60
2022/09/04 06:48:45;;;;;;;;;;;25.30;63.20;;;;;;4951703;28;20392;-60
2022/09/04 06:51:14;;;;;;;;;;;25.30;63.20;;;;;;4952450;29;19930;-60
2022/09/04 06:53:58;;;;;;;;;;;25.70;63.40;;;;;;4952420;29;20016;-60
2022/09/04 06:56:29;;;;;;;;;;;25.30;63.10;;;;;;4954193;28;19935;-60
2022/09/04 06:59:01;;;;;;;;;;;25.50;63.10;;;;;;4970834;28;20005;-64
2022/09/04 07:01:32;;;;;;;;;;;25.40;63.00;;;;;;4969501;28;19930;-60
2022/09/04 07:04:04;;;;;;;;;;;25.70;64.50;;;;;;4971882;28;20028;-65
2022/09/04 07:06:36;;;;;;;;;;;25.50;62.90;;;;;;4955624;28;19961;-60
2022/09/04 07:09:30;;;;;;;;;;;25.80;63.00;;;;;;4971208;28;19934;-60
2022/09/04 07:11:56;;;;;;;;;;;25.90;63.10;;;;;;4965492;28;19927;-60
2022/09/04 07:14:34;;;;;;;;;;;25.80;63.90;;;;;;4970997;28;19993;-61
2022/09/04 07:17:03;;;;;;;;;;;26.00;62.90;;;;;;4971606;28;19926;-63
2022/09/04 07:19:50;;;;;;;;;;;26.00;62.80;;;;;;4972146;28;19962;-61
2022/09/04 07:22:35;;;;;;;;;;;25.90;62.80;;;;;;4984245;28;19963;-60
2022/09/04 07:25:10;;;;;;;;;;;26.20;62.90;;;;;;5041087;28;19929;-61
2022/09/04 07:27:40;;;;;;;;;;;26.20;63.00;;;;;;5036389;28;19925;-62
2022/09/04 07:30:12;;;;;;;;;;;26.20;64.30;;;;;;5044470;28;19999;-65
2022/09/04 07:32:58;;;;;;;;;;;26.30;62.80;;;;;;5051863;28;20020;-60
2022/09/04 07:35:29;;;;;;;;;;;26.40;62.70;;;;;;5046895;28;19933;-61
2022/09/04 07:38:00;;;;;;;;;;;26.40;62.70;;;;;;5047201;28;19925;-61
2022/09/04 07:40:35;;;;;;;;;;;26.50;62.50;;;;;;5043214;28;20750;-60
2022/09/04 07:43:04;;;;;;;;;;;26.90;62.80;;;;;;5051228;28;19979;-60
2022/09/04 07:45:34;;;;;;;;;;;26.50;62.50;;;;;;5045640;28;20338;-62
2022/09/04 07:48:18;;;;;;;;;;;26.90;62.70;;;;;;5033729;28;19948;-61
2022/09/04 07:51:02;;;;;;;;;;;26.80;62.50;;;;;;5056034;28;19929;-60
2022/09/04 07:53:36;;;;;;;;;;;26.90;63.20;;;;;;5045504;28;19926;-60
2022/09/04 07:56:06;;;;;;;;;;;27.10;62.50;;;;;;5046004;28;19929;-60
2022/09/04 07:58:43;;;;;;;;;;;27.10;62.50;;;;;;5019134;28;19972;-61
2022/09/04 08:01:47;;;;;;;;;;;27.00;62.40;;;;;;5043018;28;20370;-60
2022/09/04 08:04:18;;;;;;;;;;;27.00;62.40;;;;;;5009835;28;19926;-64
2022/09/04 08:06:44;;;;;;;;;;;27.10;64.10;;;;;;4999319;28;20020;-66
2022/09/04 08:09:28;;;;;;;;;;;27.20;63.70;;;;;;4995691;28;20045;-61
2022/09/04 08:12:05;;;;;;;;;;;27.30;62.60;;;;;;4999322;28;20049;-61
2022/09/04 08:14:57;;;;;;;;;;;27.40;62.60;;;;;;5015968;28;19925;-64
2022/09/04 08:17:42;;;;;;;;;;;27.70;62.90;;;;;;4999890;28;19968;-61
2022/09/04 08:20:27;;;;;;;;;;;27.40;62.70;;;;;;5012995;28;20379;-61
2022/09/04 08:23:04;;;;;;;;;;;27.40;62.70;;;;;;5006750;28;19925;-69
2022/09/04 08:25:42;;;;;;;;;;;27.40;62.60;;;;;;4995395;28;19926;-69
2022/09/04 08:28:07;;;;;;;;;;;27.30;64.20;;;;;;4986322;28;19932;-66
2022/09/04 08:30:37;;;;;;;;;;;27.70;63.80;;;;;;5019191;28;19930;-66
2022/09/04 08:33:09;;;;;;;;;;;27.60;63.50;;;;;;5020527;28;20339;-70
2022/09/04 08:35:35;;;;;;;;;;;27.50;61.60;;;;;;5047245;28;20015;-66
2022/09/04 08:38:07;;;;;;;;;;;27.30;63.10;;;;;;5053606;28;19925;-65
2022/09/04 08:40:53;;;;;;;;;;;27.40;63.20;;;;;;5050972;28;20011;-70
2022/09/04 08:43:22;;;;;;;;;;;27.30;61.70;;;;;;5052482;28;19979;-67
2022/09/04 08:46:06;;;;;;;;;;;27.40;61.60;;;;;;5037194;28;20290;-66
2022/09/04 08:48:32;;;;;;;;;;;27.30;61.40;;;;;;5041017;28;20434;-64
2022/09/04 08:51:09;;;;;;;;;;;27.30;62.60;;;;;;5048235;28;20059;-60
2022/09/04 08:53:38;;;;;;;;;;;27.50;61.50;;;;;;5043754;28;20444;-61
2022/09/04 08:56:22;;;;;;;;;;;27.30;61.40;;;;;;5035817;28;20295;-64
2022/09/04 08:58:48;;;;;;;;;;;27.10;60.90;;;;;;5036808;28;20591;-61
2022/09/04 09:01:17;;;;;;;;;;;27.20;62.20;;;;;;5040076;28;19925;-61
2022/09/04 09:04:00;;;;;;;;;;;27.50;61.50;;;;;;5043865;28;20333;-63
2022/09/04 09:06:38;;;;;;;;;;;27.20;61.30;;;;;;5035718;28;20307;-61
2022/09/04 09:09:07;;;;;;;;;;;27.10;61.30;;;;;;5035284;28;19925;-61
2022/09/04 09:11:54;;;;;;;;;;;27.10;60.90;;;;;;5030902;28;19932;-64
2022/09/04 09:14:26;;;;;;;;;;;26.90;61.00;;;;;;5014122;28;19931;-61
2022/09/04 09:17:11;;;;;;;;;;;26.60;61.00;;;;;;5016036;28;19999;-61
2022/09/04 09:19:39;;;;;;;;;;;26.90;61.10;;;;;;5027811;28;19976;-70
2022/09/04 09:22:22;;;;;;;;;;;26.80;61.10;;;;;;5022271;28;19926;-70
2022/09/04 09:25:00;;;;;;;;;;;26.70;61.30;;;;;;5023272;28;19925;-67
2022/09/04 09:27:32;;;;;;;;;;;26.90;61.50;;;;;;5025402;28;19925;-66
2022/09/04 09:29:57;;;;;;;;;;;26.70;61.50;;;;;;5025879;28;19940;-60
2022/09/04 09:32:42;;;;;;;;;;;26.80;62.60;;;;;;5022816;28;19929;-61
2022/09/04 09:35:07;;;;;;;;;;;26.80;61.50;;;;;;5015205;28;19925;-61
2022/09/04 09:37:52;;;;;;;;;;;26.70;62.50;;;;;;5029330;28;20337;-60
2022/09/04 09:40:38;;;;;;;;;;;27.00;61.60;;;;;;5020210;28;20306;-60
2022/09/04 09:43:08;;;;;;;;;;;27.00;62.90;;;;;;4991986;28;20461;-61
2022/09/04 09:45:40;;;;;;;;;;;26.80;61.50;;;;;;4991533;28;19929;-61
2022/09/04 09:48:18;;;;;;;;;;;27.00;61.60;;;;;;4991491;28;20017;-70
2022/09/04 09:50:52;;;;;;;;;;;26.70;61.40;;;;;;4992363;28;20024;-68
2022/09/04 09:53:40;;;;;;;;;;;26.70;61.40;;;;;;4988629;28;19980;-61
2022/09/04 09:56:21;;;;;;;;;;;26.70;62.10;;;;;;4995199;28;20416;-60
2022/09/04 09:58:49;;;;;;;;;;;26.90;61.70;;;;;;4989309;28;19934;-71
2022/09/04 10:01:15;;;;;;;;;;;26.80;61.70;;;;;;4983230;28;19976;-73
2022/09/04 10:03:41;;;;;;;;;;;27.00;63.00;;;;;;4992080;28;19926;-71
2022/09/04 10:06:13;;;;;;;;;;;26.70;62.70;;;;;;4989680;28;20036;-70
2022/09/04 10:08:57;;;;;;;;;;;27.00;61.90;;;;;;5008904;28;19925;-72
2022/09/04 10:11:42;;;;;;;;;;;26.80;61.80;;;;;;5029934;28;19980;-73
2022/09/04 10:14:14;;;;;;;;;;;26.80;61.70;;;;;;5030751;28;19926;-67
2022/09/04 10:16:56;;;;;;;;;;;26.80;63.30;;;;;;5031307;28;19925;-73
2022/09/04 10:19:28;;;;;;;;;;;27.00;62.00;;;;;;5042874;28;19932;-66
2022/09/04 10:21:54;;;;;;;;;;;27.00;62.00;;;;;;5064612;28;20023;-68
2022/09/04 10:24:35;;;;;;;;;;;26.80;63.10;;;;;;5061984;28;20015;-71
2022/09/04 10:27:19;;;;;;;;;;;26.70;61.80;;;;;;5064329;28;19978;-61
2022/09/04 10:30:04;;;;;;;;;;;26.70;61.80;;;;;;5069493;28;20023;-62
2022/09/04 10:32:30;;;;;;;;;;;26.60;61.90;;;;;;5067682;28;19925;-61
2022/09/04 10:35:02;;;;;;;;;;;26.60;63.10;;;;;;5062395;28;19925;-70
2022/09/04 10:37:35;;;;;;;;;;;27.10;62.20;;;;;;5062732;28;19925;-71
2022/09/04 10:43:02;;;;;;;;;;;26.90;62.10;;;;;;5063004;28;19932;-71
2022/09/04 10:45:43;;;;;;;;;;;27.00;62.20;;;;;;5061364;28;19924;-62
2022/09/04 10:48:26;;;;;;;;;;;26.90;62.20;;;;;;5054912;28;19925;-65
2022/09/04 10:50:58;;;;;;;;;;;26.90;62.20;;;;;;5047068;28;19971;-64
2022/09/04 10:53:23;;;;;;;;;;;27.10;62.10;;;;;;5066333;28;19936;-60
2022/09/04 10:55:53;;;;;;;;;;;27.00;63.30;;;;;;5062449;28;20378;-61
2022/09/04 10:58:28;;;;;;;;;;;26.80;63.20;;;;;;5072258;28;20378;-60
2022/09/04 11:01:13;;;;;;;;;;;27.00;61.90;;;;;;5066296;28;19925;-61
2022/09/04 11:03:57;;;;;;;;;;;27.30;62.20;;;;;;5058164;28;19925;-60
2022/09/04 11:06:29;;;;;;;;;;;27.10;61.90;;;;;;5070581;28;20321;-67
2022/09/04 11:09:01;;;;;;;;;;;27.00;61.70;;;;;;5075369;28;19946;-61
2022/09/04 11:11:33;;;;;;;;;;;27.20;63.10;;;;;;5069285;28;19978;-61
2022/09/04 11:14:11;;;;;;;;;;;27.30;61.90;;;;;;5053325;28;19925;-60
2022/09/04 11:16:47;;;;;;;;;;;27.20;61.80;;;;;;5058746;28;20004;-61
2022/09/04 11:19:13;;;;;;;;;;;27.30;61.70;;;;;;5074718;28;19958;-64
2022/09/04 11:21:43;;;;;;;;;;;27.00;62.40;;;;;;5059966;28;19926;-66
2022/09/04 11:24:15;;;;;;;;;;;27.30;62.80;;;;;;5074306;28;19924;-71
2022/09/04 11:26:49;;;;;;;;;;;27.30;61.60;;;;;;5053377;28;20677;-60
2022/09/04 11:29:40;;;;;;;;;;;27.10;61.20;;;;;;5072520;28;19924;-62
2022/09/04 11:32:19;;;;;;;;;;;26.90;62.50;;;;;;5069124;28;19924;-61
2022/09/04 11:35:05;;;;;;;;;;;27.00;61.30;;;;;;5068433;28;19978;-61
2022/09/04 11:37:37;;;;;;;;;;;27.10;61.30;;;;;;5070768;28;19978;-61
2022/09/04 11:40:19;;;;;;;;;;;27.00;61.20;;;;;;5068556;28;19970;-60
2022/09/04 11:43:03;;;;;;;;;;;27.20;61.30;;;;;;5059959;28;20344;-61
2022/09/04 11:45:32;;;;;;;;;;;27.30;61.30;;;;;;5059972;28;20367;-61
2022/09/04 11:48:10;;;;;;;;;;;27.20;62.10;;;;;;5051571;28;20350;-61
2022/09/04 11:50:36;;;;;;;;;;;27.30;61.20;;;;;;5067362;28;19925;-61
2022/09/04 11:53:11;;;;;;;;;;;27.00;62.00;;;;;;5064030;28;20276;-61
2022/09/04 11:55:46;;;;;;;;;;;27.20;61.10;;;;;;5067079;28;19931;-65
2022/09/04 11:58:19;;;;;;;;;;;27.40;61.30;;;;;;5075528;28;20421;-61
2022/09/04 12:00:47;;;;;;;;;;;27.50;61.40;;;;;;5074952;28;20337;-60
2022/09/04 12:03:32;;;;;;;;;;;27.20;61.20;;;;;;5057140;28;20003;-62
2022/09/04 12:06:17;;;;;;;;;;;27.30;61.10;;;;;;5064955;28;19975;-61
2022/09/04 12:09:01;;;;;;;;;;;27.30;61.20;;;;;;5067878;28;19928;-61
2022/09/04 12:11:45;;;;;;;;;;;27.30;61.20;;;;;;5068463;28;19970;-60
2022/09/04 12:14:18;;;;;;;;;;;27.60;61.30;;;;;;5057404;28;20391;-61
2022/09/04 12:17:04;;;;;;;;;;;27.70;61.40;;;;;;5063627;28;19925;-63
2022/09/04 12:19:30;;;;;;;;;;;27.40;61.20;;;;;;5065877;28;20318;-61
2022/09/04 12:21:59;;;;;;;;;;;27.50;61.60;;;;;;5068461;28;20340;-70
2022/09/04 12:24:34;;;;;;;;;;;27.60;61.30;;;;;;5059400;28;20441;-70
2022/09/04 12:27:15;;;;;;;;;;;27.60;61.10;;;;;;5059257;28;20019;-61
2022/09/04 12:30:00;;;;;;;;;;;27.60;61.00;;;;;;5066432;28;20410;-60
2022/09/04 12:32:44;;;;;;;;;;;27.60;60.90;;;;;;5072087;28;20332;-61
2022/09/04 12:35:23;;;;;;;;;;;27.60;60.90;;;;;;5061280;28;19925;-64
2022/09/04 12:37:49;;;;;;;;;;;27.70;61.10;;;;;;5060629;28;19983;-61
2022/09/04 12:40:33;;;;;;;;;;;27.60;61.70;;;;;;5062444;28;19968;-61
2022/09/04 12:43:15;;;;;;;;;;;27.70;61.10;;;;;;5061402;28;19925;-68
2022/09/04 12:45:46;;;;;;;;;;;27.70;61.10;;;;;;5060839;28;19932;-70
2022/09/04 12:48:16;;;;;;;;;;;27.70;60.90;;;;;;5041987;28;19951;-70
2022/09/04 12:50:44;;;;;;;;;;;27.60;61.90;;;;;;5067072;28;19951;-70
2022/09/04 12:53:30;;;;;;;;;;;27.70;61.30;;;;;;5064688;28;19931;-62
2022/09/04 12:55:57;;;;;;;;;;;27.80;60.90;;;;;;5061477;28;19925;-61
2022/09/04 12:58:33;;;;;;;;;;;27.50;61.30;;;;;;5073423;28;19924;-61
2022/09/04 13:01:18;;;;;;;;;;;27.70;60.90;;;;;;5073139;28;20621;-61
2022/09/04 13:04:03;;;;;;;;;;;27.60;60.90;;;;;;5059030;28;20374;-60
2022/09/04 13:06:47;;;;;;;;;;;27.50;60.90;;;;;;5063163;28;20310;-61
2022/09/04 13:09:16;;;;;;;;;;;27.70;61.00;;;;;;5066848;28;19929;-61
2022/09/04 13:11:51;;;;;;;;;;;27.70;61.00;;;;;;5059670;28;19931;-61
2022/09/04 13:14:46;;;;;;;;;;;27.70;61.00;;;;;;5063224;28;19979;-61
2022/09/04 13:17:12;;;;;;;;;;;27.60;60.90;;;;;;5050617;28;19982;-60
2022/09/04 13:19:45;;;;;;;;;;;27.60;62.10;;;;;;5062396;28;20438;-61
2022/09/04 13:22:29;;;;;;;;;;;27.40;60.90;;;;;;5062903;28;20313;-60
2022/09/04 13:25:01;;;;;;;;;;;27.40;61.00;;;;;;5055394;28;19932;-61
2022/09/04 13:27:38;;;;;;;;;;;27.60;61.20;;;;;;5066648;28;20421;-61
2022/09/04 13:30:07;;;;;;;;;;;27.70;61.50;;;;;;5066539;28;19978;-60
2022/09/04 13:32:51;;;;;;;;;;;27.40;61.20;;;;;;5082054;28;19924;-61
2022/09/04 13:35:37;;;;;;;;;;;27.50;61.30;;;;;;5065697;28;20019;-61
2022/09/04 13:38:09;;;;;;;;;;;27.60;61.50;;;;;;5054760;28;19932;-60
2022/09/04 13:40:53;;;;;;;;;;;27.50;62.70;;;;;;5055171;28;19976;-60
2022/09/04 13:43:39;;;;;;;;;;;27.60;61.40;;;;;;5070848;28;19924;-62
2022/09/04 13:46:15;;;;;;;;;;;27.60;61.40;;;;;;5075508;28;19925;-61
2022/09/04 13:48:42;;;;;;;;;;;27.80;63.00;;;;;;5049071;28;19925;-60
2022/09/04 13:51:12;;;;;;;;;;;27.40;62.60;;;;;;5068538;28;20335;-61
2022/09/04 13:53:55;;;;;;;;;;;27.70;62.30;;;;;;5064499;28;19925;-60
2022/09/04 13:56:28;;;;;;;;;;;27.50;61.30;;;;;;5084418;28;19951;-61
2022/09/04 13:58:56;;;;;;;;;;;27.90;63.20;;;;;;5054393;28;19954;-60
2022/09/04 14:01:24;;;;;;;;;;;27.60;62.90;;;;;;5075098;28;19925;-60
2022/09/04 14:04:00;;;;;;;;;;;27.70;62.80;;;;;;5053579;28;19936;-61
2022/09/04 14:06:26;;;;;;;;;;;27.50;61.50;;;;;;5067374;28;20499;-61
2022/09/04 14:08:52;;;;;;;;;;;27.20;62.70;;;;;;5065134;28;19970;-61
2022/09/04 14:11:29;;;;;;;;;;;27.70;63.10;;;;;;5055761;28;20349;-62
2022/09/04 14:13:54;;;;;;;;;;;27.70;62.00;;;;;;5086614;28;20394;-61
2022/09/04 14:16:22;;;;;;;;;;;27.40;62.50;;;;;;5073336;28;20017;-60
2022/09/04 14:18:55;;;;;;;;;;;27.40;62.90;;;;;;5065393;28;19925;-61
2022/09/04 14:21:24;;;;;;;;;;;27.70;62.10;;;;;;5062177;28;19936;-61
2022/09/04 14:23:51;;;;;;;;;;;27.60;62.70;;;;;;5053513;28;19971;-60
2022/09/04 14:26:27;;;;;;;;;;;27.50;62.50;;;;;;5064364;28;19925;-61
2022/09/04 14:29:03;;;;;;;;;;;27.50;62.20;;;;;;5060602;28;19936;-60
2022/09/04 14:31:30;;;;;;;;;;;27.30;62.20;;;;;;5059971;28;20015;-60
2022/09/04 14:34:26;;;;;;;;;;;27.40;63.80;;;;;;5072882;28;19928;-60
2022/09/04 14:36:59;;;;;;;;;;;27.30;62.30;;;;;;5013467;28;19999;-61
2022/09/04 14:39:26;;;;;;;;;;;27.30;62.30;;;;;;5029015;28;20310;-61
2022/09/04 14:42:05;;;;;;;;;;;27.50;64.10;;;;;;5000104;28;19988;-61
2022/09/04 14:44:31;;;;;;;;;;;27.30;63.00;;;;;;5013935;28;19976;-61
2022/09/04 14:47:06;;;;;;;;;;;27.50;63.50;;;;;;5014350;28;19925;-61
2022/09/04 14:49:33;;;;;;;;;;;27.30;62.50;;;;;;5014065;28;19925;-61
2022/09/04 14:52:02;;;;;;;;;;;27.50;63.70;;;;;;5010636;28;20024;-70
2022/09/04 14:54:32;;;;;;;;;;;27.40;64.40;;;;;;5020308;28;19935;-70
2022/09/04 14:57:10;;;;;;;;;;;27.30;63.50;;;;;;5026189;28;19925;-69
2022/09/04 14:59:37;;;;;;;;;;;27.40;63.00;;;;;;5023967;28;19983;-62
2022/09/04 15:02:10;;;;;;;;;;;27.10;64.00;;;;;;5012641;28;19945;-61
2022/09/04 15:04:50;;;;;;;;;;;27.30;62.70;;;;;;5024796;28;19930;-66
2022/09/04 15:07:34;;;;;;;;;;;27.30;62.70;;;;;;5026575;28;19926;-65
2022/09/04 15:10:09;;;;;;;;;;;27.30;62.70;;;;;;5029007;28;19929;-60